sensor_id;sensor_type;location;lat;lon;timestamp;P1;durP1;ratioP1;P2;durP2;ratioP2
43154;SDS011;34212;51.018;13.586;2023-07-29T00:03:07;3.17;;;1.90;;
43154;SDS011;34212;51.018;13.586;2023-07-29T00:13:10;2.30;;;1.73;;
43154;SDS011;34212;51.018;13.586;2023-07-29T00:18:12;3.70;;;1.70;;
43154;SDS011;34212;51.018;13.586;2023-07-29T00:23:13;1.65;;;1.55;;
43154;SDS011;34212;51.018;13.586;2023-07-29T00:28:15;3.53;;;1.60;;
43154;SDS011;34212;51.018;13.586;2023-07-29T00:33:18;2.88;;;1.73;;
43154;SDS011;34212;51.018;13.586;2023-07-29T00:38:21;2.92;;;1.60;;
43154;SDS011;34212;51.018;13.586;2023-07-29T00:43:23;2.45;;;1.40;;
43154;SDS011;34212;51.018;13.586;2023-07-29T00:48:25;2.10;;;1.48;;
43154;SDS011;34212;51.018;13.586;2023-07-29T00:53:27;1.65;;;1.55;;
43154;SDS011;34212;51.018;13.586;2023-07-29T00:58:29;2.20;;;1.40;;
43154;SDS011;34212;51.018;13.586;2023-07-29T01:03:30;2.90;;;1.65;;
43154;SDS011;34212;51.018;13.586;2023-07-29T01:08:43;3.00;;;1.70;;
43154;SDS011;34212;51.018;13.586;2023-07-29T01:14:03;2.47;;;1.50;;
43154;SDS011;34212;51.018;13.586;2023-07-29T01:19:42;1.80;;;1.60;;
43154;SDS011;34212;51.018;13.586;2023-07-29T01:24:57;2.88;;;1.50;;
43154;SDS011;34212;51.018;13.586;2023-07-29T01:29:59;2.25;;;1.80;;
43154;SDS011;34212;51.018;13.586;2023-07-29T01:35:10;1.75;;;1.60;;
43154;SDS011;34212;51.018;13.586;2023-07-29T01:40:13;3.10;;;1.60;;
43154;SDS011;34212;51.018;13.586;2023-07-29T01:45:16;1.92;;;1.75;;
43154;SDS011;34212;51.018;13.586;2023-07-29T01:50:18;1.92;;;1.70;;
43154;SDS011;34212;51.018;13.586;2023-07-29T01:55:20;2.28;;;1.67;;
43154;SDS011;34212;51.018;13.586;2023-07-29T02:00:22;2.95;;;1.52;;
43154;SDS011;34212;51.018;13.586;2023-07-29T02:05:23;2.47;;;1.60;;
43154;SDS011;34212;51.018;13.586;2023-07-29T02:10:25;5.68;;;1.75;;
43154;SDS011;34212;51.018;13.586;2023-07-29T02:15:26;2.28;;;1.50;;
43154;SDS011;34212;51.018;13.586;2023-07-29T02:20:29;1.80;;;1.70;;
43154;SDS011;34212;51.018;13.586;2023-07-29T02:25:30;2.78;;;1.40;;
43154;SDS011;34212;51.018;13.586;2023-07-29T02:30:32;1.50;;;1.40;;
43154;SDS011;34212;51.018;13.586;2023-07-29T02:35:33;1.63;;;1.20;;
43154;SDS011;34212;51.018;13.586;2023-07-29T02:40:35;1.38;;;1.20;;
43154;SDS011;34212;51.018;13.586;2023-07-29T02:45:36;3.15;;;1.40;;
43154;SDS011;34212;51.018;13.586;2023-07-29T02:50:38;1.80;;;1.40;;
43154;SDS011;34212;51.018;13.586;2023-07-29T02:55:39;1.30;;;1.20;;
43154;SDS011;34212;51.018;13.586;2023-07-29T03:00:42;2.00;;;1.40;;
43154;SDS011;34212;51.018;13.586;2023-07-29T03:05:44;1.48;;;1.20;;
43154;SDS011;34212;51.018;13.586;2023-07-29T03:10:46;2.65;;;1.20;;
43154;SDS011;34212;51.018;13.586;2023-07-29T03:15:47;1.30;;;1.20;;
43154;SDS011;34212;51.018;13.586;2023-07-29T03:20:49;2.05;;;1.00;;
43154;SDS011;34212;51.018;13.586;2023-07-29T03:25:51;2.20;;;1.30;;
43154;SDS011;34212;51.018;13.586;2023-07-29T03:30:58;1.40;;;1.30;;
43154;SDS011;34212;51.018;13.586;2023-07-29T03:35:59;1.75;;;1.08;;
43154;SDS011;34212;51.018;13.586;2023-07-29T03:41:01;1.25;;;1.15;;
43154;SDS011;34212;51.018;13.586;2023-07-29T03:46:04;1.40;;;1.10;;
43154;SDS011;34212;51.018;13.586;2023-07-29T03:51:08;1.33;;;1.20;;
43154;SDS011;34212;51.018;13.586;2023-07-29T03:56:10;2.95;;;1.10;;
43154;SDS011;34212;51.018;13.586;2023-07-29T04:01:12;1.58;;;1.20;;
43154;SDS011;34212;51.018;13.586;2023-07-29T04:06:13;1.42;;;1.20;;
43154;SDS011;34212;51.018;13.586;2023-07-29T04:11:15;1.65;;;1.30;;
43154;SDS011;34212;51.018;13.586;2023-07-29T04:16:16;1.20;;;1.10;;
43154;SDS011;34212;51.018;13.586;2023-07-29T04:26:20;2.63;;;1.20;;
43154;SDS011;34212;51.018;13.586;2023-07-29T04:31:21;1.33;;;1.23;;
43154;SDS011;34212;51.018;13.586;2023-07-29T04:36:23;1.40;;;1.20;;
43154;SDS011;34212;51.018;13.586;2023-07-29T04:41:24;1.30;;;1.10;;
43154;SDS011;34212;51.018;13.586;2023-07-29T04:46:26;1.73;;;1.17;;
43154;SDS011;34212;51.018;13.586;2023-07-29T04:51:27;1.15;;;1.05;;
43154;SDS011;34212;51.018;13.586;2023-07-29T05:01:30;1.17;;;1.07;;
43154;SDS011;34212;51.018;13.586;2023-07-29T05:06:32;1.38;;;1.10;;
43154;SDS011;34212;51.018;13.586;2023-07-29T05:16:35;1.23;;;1.10;;
43154;SDS011;34212;51.018;13.586;2023-07-29T05:21:38;1.20;;;1.10;;
43154;SDS011;34212;51.018;13.586;2023-07-29T05:26:40;1.30;;;1.20;;
43154;SDS011;34212;51.018;13.586;2023-07-29T05:31:42;1.30;;;1.10;;
43154;SDS011;34212;51.018;13.586;2023-07-29T05:41:45;1.20;;;1.10;;
43154;SDS011;34212;51.018;13.586;2023-07-29T05:46:47;1.23;;;1.13;;
43154;SDS011;34212;51.018;13.586;2023-07-29T05:51:49;1.38;;;1.08;;
43154;SDS011;34212;51.018;13.586;2023-07-29T05:56:53;2.47;;;0.90;;
43154;SDS011;34212;51.018;13.586;2023-07-29T06:01:54;2.08;;;1.20;;
43154;SDS011;34212;51.018;13.586;2023-07-29T06:06:56;4.13;;;1.40;;
43154;SDS011;34212;51.018;13.586;2023-07-29T06:11:58;1.42;;;1.13;;
43154;SDS011;34212;51.018;13.586;2023-07-29T06:16:59;1.30;;;1.20;;
43154;SDS011;34212;51.018;13.586;2023-07-29T06:22:02;1.33;;;1.20;;
43154;SDS011;34212;51.018;13.586;2023-07-29T06:32:05;0.95;;;0.95;;
43154;SDS011;34212;51.018;13.586;2023-07-29T06:37:07;1.70;;;1.40;;
43154;SDS011;34212;51.018;13.586;2023-07-29T06:42:08;1.27;;;1.17;;
43154;SDS011;34212;51.018;13.586;2023-07-29T06:47:10;1.40;;;1.23;;
43154;SDS011;34212;51.018;13.586;2023-07-29T06:52:11;1.15;;;1.05;;
43154;SDS011;34212;51.018;13.586;2023-07-29T06:57:13;1.15;;;1.05;;
43154;SDS011;34212;51.018;13.586;2023-07-29T07:02:14;1.30;;;1.20;;
43154;SDS011;34212;51.018;13.586;2023-07-29T07:07:16;1.30;;;1.00;;
43154;SDS011;34212;51.018;13.586;2023-07-29T07:17:19;1.25;;;1.08;;
43154;SDS011;34212;51.018;13.586;2023-07-29T07:27:22;1.08;;;0.98;;
43154;SDS011;34212;51.018;13.586;2023-07-29T07:32:23;1.65;;;1.23;;
43154;SDS011;34212;51.018;13.586;2023-07-29T07:37:25;3.15;;;1.08;;
43154;SDS011;34212;51.018;13.586;2023-07-29T07:47:28;2.17;;;1.00;;
43154;SDS011;34212;51.018;13.586;2023-07-29T07:57:32;1.00;;;0.90;;
43154;SDS011;34212;51.018;13.586;2023-07-29T08:02:34;0.80;;;0.80;;
43154;SDS011;34212;51.018;13.586;2023-07-29T08:12:37;0.70;;;0.70;;
43154;SDS011;34212;51.018;13.586;2023-07-29T08:22:40;7.20;;;0.90;;
43154;SDS011;34212;51.018;13.586;2023-07-29T08:27:41;0.90;;;0.80;;
43154;SDS011;34212;51.018;13.586;2023-07-29T08:37:46;1.10;;;1.00;;
43154;SDS011;34212;51.018;13.586;2023-07-29T08:42:47;1.20;;;1.10;;
43154;SDS011;34212;51.018;13.586;2023-07-29T08:47:51;1.75;;;1.17;;
43154;SDS011;34212;51.018;13.586;2023-07-29T08:52:59;0.85;;;0.85;;
43154;SDS011;34212;51.018;13.586;2023-07-29T08:58:04;1.58;;;1.10;;
43154;SDS011;34212;51.018;13.586;2023-07-29T09:03:06;1.30;;;1.20;;
43154;SDS011;34212;51.018;13.586;2023-07-29T09:08:08;2.72;;;1.20;;
43154;SDS011;34212;51.018;13.586;2023-07-29T09:13:10;1.30;;;1.15;;
43154;SDS011;34212;51.018;13.586;2023-07-29T09:18:14;1.77;;;1.15;;
43154;SDS011;34212;51.018;13.586;2023-07-29T09:23:17;1.25;;;1.15;;
43154;SDS011;34212;51.018;13.586;2023-07-29T09:28:19;1.20;;;1.10;;
43154;SDS011;34212;51.018;13.586;2023-07-29T09:33:21;2.85;;;1.10;;
43154;SDS011;34212;51.018;13.586;2023-07-29T09:38:26;1.73;;;0.90;;
43154;SDS011;34212;51.018;13.586;2023-07-29T09:43:29;1.20;;;1.10;;
43154;SDS011;34212;51.018;13.586;2023-07-29T09:48:35;1.60;;;1.20;;
43154;SDS011;34212;51.018;13.586;2023-07-29T09:53:42;0.95;;;0.85;;
43154;SDS011;34212;51.018;13.586;2023-07-29T09:58:48;2.10;;;1.10;;
43154;SDS011;34212;51.018;13.586;2023-07-29T10:03:50;1.77;;;1.10;;
43154;SDS011;34212;51.018;13.586;2023-07-29T10:08:52;1.30;;;1.20;;
43154;SDS011;34212;51.018;13.586;2023-07-29T10:13:54;2.15;;;1.20;;
43154;SDS011;34212;51.018;13.586;2023-07-29T10:19:09;5.15;;;1.00;;
43154;SDS011;34212;51.018;13.586;2023-07-29T10:24:12;1.45;;;1.00;;
43154;SDS011;34212;51.018;13.586;2023-07-29T10:29:20;1.08;;;0.73;;
43154;SDS011;34212;51.018;13.586;2023-07-29T10:34:25;0.98;;;0.80;;
43154;SDS011;34212;51.018;13.586;2023-07-29T10:39:27;0.77;;;0.75;;
43154;SDS011;34212;51.018;13.586;2023-07-29T10:49:48;1.00;;;0.85;;
43154;SDS011;34212;51.018;13.586;2023-07-29T10:54:52;4.50;;;1.10;;
43154;SDS011;34212;51.018;13.586;2023-07-29T10:59:54;1.77;;;1.02;;
43154;SDS011;34212;51.018;13.586;2023-07-29T11:04:57;1.95;;;1.10;;
43154;SDS011;34212;51.018;13.586;2023-07-29T11:10:00;1.10;;;1.00;;
43154;SDS011;34212;51.018;13.586;2023-07-29T11:20:13;1.73;;;1.15;;
43154;SDS011;34212;51.018;13.586;2023-07-29T11:25:16;4.88;;;1.15;;
43154;SDS011;34212;51.018;13.586;2023-07-29T11:30:19;1.30;;;1.10;;
43154;SDS011;34212;51.018;13.586;2023-07-29T11:35:20;4.80;;;1.13;;
43154;SDS011;34212;51.018;13.586;2023-07-29T11:40:22;1.27;;;1.17;;
43154;SDS011;34212;51.018;13.586;2023-07-29T11:45:24;1.73;;;1.17;;
43154;SDS011;34212;51.018;13.586;2023-07-29T11:50:36;3.08;;;0.98;;
43154;SDS011;34212;51.018;13.586;2023-07-29T11:55:38;1.42;;;1.05;;
43154;SDS011;34212;51.018;13.586;2023-07-29T12:05:41;4.05;;;0.90;;
43154;SDS011;34212;51.018;13.586;2023-07-29T12:10:42;1.00;;;0.90;;
43154;SDS011;34212;51.018;13.586;2023-07-29T12:15:44;1.23;;;1.00;;
43154;SDS011;34212;51.018;13.586;2023-07-29T12:25:48;1.30;;;1.10;;
43154;SDS011;34212;51.018;13.586;2023-07-29T12:35:57;1.83;;;1.00;;
43154;SDS011;34212;51.018;13.586;2023-07-29T12:40:59;3.55;;;1.13;;
43154;SDS011;34212;51.018;13.586;2023-07-29T12:46:01;1.55;;;1.00;;
43154;SDS011;34212;51.018;13.586;2023-07-29T12:51:02;1.00;;;0.90;;
43154;SDS011;34212;51.018;13.586;2023-07-29T12:56:04;1.25;;;1.00;;
43154;SDS011;34212;51.018;13.586;2023-07-29T13:01:07;1.40;;;1.08;;
43154;SDS011;34212;51.018;13.586;2023-07-29T13:06:10;1.15;;;0.90;;
43154;SDS011;34212;51.018;13.586;2023-07-29T13:11:12;1.45;;;1.13;;
43154;SDS011;34212;51.018;13.586;2023-07-29T13:16:14;1.13;;;1.02;;
43154;SDS011;34212;51.018;13.586;2023-07-29T13:21:15;2.08;;;1.10;;
43154;SDS011;34212;51.018;13.586;2023-07-29T13:26:17;1.10;;;1.00;;
43154;SDS011;34212;51.018;13.586;2023-07-29T13:31:19;1.08;;;0.98;;
43154;SDS011;34212;51.018;13.586;2023-07-29T13:36:20;1.45;;;1.17;;
43154;SDS011;34212;51.018;13.586;2023-07-29T13:41:22;1.48;;;1.00;;
43154;SDS011;34212;51.018;13.586;2023-07-29T13:46:23;1.48;;;0.90;;
43154;SDS011;34212;51.018;13.586;2023-07-29T13:51:25;1.08;;;0.73;;
43154;SDS011;34212;51.018;13.586;2023-07-29T13:56:26;1.08;;;0.98;;
43154;SDS011;34212;51.018;13.586;2023-07-29T14:01:28;4.20;;;1.02;;
43154;SDS011;34212;51.018;13.586;2023-07-29T14:06:29;2.25;;;0.90;;
43154;SDS011;34212;51.018;13.586;2023-07-29T14:11:46;1.48;;;1.13;;
43154;SDS011;34212;51.018;13.586;2023-07-29T14:16:48;1.75;;;1.02;;
43154;SDS011;34212;51.018;13.586;2023-07-29T14:21:50;1.27;;;1.00;;
43154;SDS011;34212;51.018;13.586;2023-07-29T14:26:51;2.20;;;1.10;;
43154;SDS011;34212;51.018;13.586;2023-07-29T14:31:53;1.38;;;1.08;;
43154;SDS011;34212;51.018;13.586;2023-07-29T14:36:54;3.33;;;1.10;;
43154;SDS011;34212;51.018;13.586;2023-07-29T14:41:56;1.58;;;0.98;;
43154;SDS011;34212;51.018;13.586;2023-07-29T14:46:57;1.00;;;0.90;;
43154;SDS011;34212;51.018;13.586;2023-07-29T14:51:59;3.50;;;0.95;;
43154;SDS011;34212;51.018;13.586;2023-07-29T14:57:00;2.00;;;0.90;;
43154;SDS011;34212;51.018;13.586;2023-07-29T15:02:02;1.10;;;0.98;;
43154;SDS011;34212;51.018;13.586;2023-07-29T15:07:03;1.15;;;0.85;;
43154;SDS011;34212;51.018;13.586;2023-07-29T15:12:05;1.63;;;1.00;;
43154;SDS011;34212;51.018;13.586;2023-07-29T15:17:07;1.88;;;0.80;;
43154;SDS011;34212;51.018;13.586;2023-07-29T15:22:09;1.10;;;0.90;;
43154;SDS011;34212;51.018;13.586;2023-07-29T15:27:11;1.58;;;1.10;;
43154;SDS011;34212;51.018;13.586;2023-07-29T15:32:13;1.20;;;1.10;;
43154;SDS011;34212;51.018;13.586;2023-07-29T15:37:14;0.90;;;0.90;;
43154;SDS011;34212;51.018;13.586;2023-07-29T15:42:16;2.20;;;1.20;;
43154;SDS011;34212;51.018;13.586;2023-07-29T15:47:18;1.55;;;1.25;;
43154;SDS011;34212;51.018;13.586;2023-07-29T15:52:20;1.50;;;1.00;;
43154;SDS011;34212;51.018;13.586;2023-07-29T15:57:21;1.40;;;0.90;;
43154;SDS011;34212;51.018;13.586;2023-07-29T16:02:23;2.67;;;1.40;;
43154;SDS011;34212;51.018;13.586;2023-07-29T16:07:24;1.73;;;1.20;;
43154;SDS011;34212;51.018;13.586;2023-07-29T16:12:26;1.30;;;1.05;;
43154;SDS011;34212;51.018;13.586;2023-07-29T16:17:28;2.05;;;1.27;;
43154;SDS011;34212;51.018;13.586;2023-07-29T16:22:29;2.45;;;1.00;;
43154;SDS011;34212;51.018;13.586;2023-07-29T16:27:31;1.35;;;1.10;;
43154;SDS011;34212;51.018;13.586;2023-07-29T16:32:33;1.35;;;1.20;;
43154;SDS011;34212;51.018;13.586;2023-07-29T16:37:35;4.45;;;1.90;;
43154;SDS011;34212;51.018;13.586;2023-07-29T16:42:37;4.65;;;1.20;;
43154;SDS011;34212;51.018;13.586;2023-07-29T16:47:39;10.88;;;1.80;;
43154;SDS011;34212;51.018;13.586;2023-07-29T16:57:42;5.13;;;2.40;;
43154;SDS011;34212;51.018;13.586;2023-07-29T17:02:43;2.38;;;1.70;;
43154;SDS011;34212;51.018;13.586;2023-07-29T17:12:46;5.83;;;1.77;;
43154;SDS011;34212;51.018;13.586;2023-07-29T17:17:48;6.32;;;1.98;;
43154;SDS011;34212;51.018;13.586;2023-07-29T17:22:49;13.10;;;2.13;;
43154;SDS011;34212;51.018;13.586;2023-07-29T17:27:51;2.85;;;1.70;;
43154;SDS011;34212;51.018;13.586;2023-07-29T17:32:52;3.78;;;1.85;;
43154;SDS011;34212;51.018;13.586;2023-07-29T17:37:54;2.95;;;1.90;;
43154;SDS011;34212;51.018;13.586;2023-07-29T17:42:55;3.45;;;1.85;;
43154;SDS011;34212;51.018;13.586;2023-07-29T17:47:57;2.85;;;1.85;;
43154;SDS011;34212;51.018;13.586;2023-07-29T17:53:00;5.78;;;1.77;;
43154;SDS011;34212;51.018;13.586;2023-07-29T18:03:03;4.57;;;2.10;;
43154;SDS011;34212;51.018;13.586;2023-07-29T18:08:04;3.72;;;2.08;;
43154;SDS011;34212;51.018;13.586;2023-07-29T18:13:06;4.85;;;2.20;;
43154;SDS011;34212;51.018;13.586;2023-07-29T18:18:09;3.78;;;2.53;;
43154;SDS011;34212;51.018;13.586;2023-07-29T18:23:10;2.63;;;1.90;;
43154;SDS011;34212;51.018;13.586;2023-07-29T18:28:13;4.93;;;2.75;;
43154;SDS011;34212;51.018;13.586;2023-07-29T18:33:15;3.13;;;1.90;;
43154;SDS011;34212;51.018;13.586;2023-07-29T18:38:16;2.45;;;1.80;;
43154;SDS011;34212;51.018;13.586;2023-07-29T18:43:18;3.90;;;1.90;;
43154;SDS011;34212;51.018;13.586;2023-07-29T18:48:19;4.07;;;2.10;;
43154;SDS011;34212;51.018;13.586;2023-07-29T18:53:21;3.00;;;2.00;;
43154;SDS011;34212;51.018;13.586;2023-07-29T18:58:22;1.92;;;1.60;;
43154;SDS011;34212;51.018;13.586;2023-07-29T19:03:24;2.67;;;1.70;;
43154;SDS011;34212;51.018;13.586;2023-07-29T19:08:28;2.63;;;1.60;;
43154;SDS011;34212;51.018;13.586;2023-07-29T19:13:29;2.63;;;1.58;;
43154;SDS011;34212;51.018;13.586;2023-07-29T19:18:31;2.67;;;1.38;;
43154;SDS011;34212;51.018;13.586;2023-07-29T19:23:32;1.60;;;1.35;;
43154;SDS011;34212;51.018;13.586;2023-07-29T19:28:34;3.95;;;1.60;;
43154;SDS011;34212;51.018;13.586;2023-07-29T19:33:35;2.05;;;1.48;;
43154;SDS011;34212;51.018;13.586;2023-07-29T19:38:41;3.15;;;1.70;;
43154;SDS011;34212;51.018;13.586;2023-07-29T19:43:43;2.78;;;1.42;;
43154;SDS011;34212;51.018;13.586;2023-07-29T19:48:48;1.65;;;1.20;;
43154;SDS011;34212;51.018;13.586;2023-07-29T19:53:52;3.78;;;1.15;;
43154;SDS011;34212;51.018;13.586;2023-07-29T19:58:54;1.60;;;1.15;;
43154;SDS011;34212;51.018;13.586;2023-07-29T20:03:55;3.10;;;1.23;;
43154;SDS011;34212;51.018;13.586;2023-07-29T20:08:57;3.17;;;1.35;;
43154;SDS011;34212;51.018;13.586;2023-07-29T20:13:58;10.57;;;1.40;;
43154;SDS011;34212;51.018;13.586;2023-07-29T20:19:00;2.13;;;1.50;;
43154;SDS011;34212;51.018;13.586;2023-07-29T20:24:01;1.92;;;1.35;;
43154;SDS011;34212;51.018;13.586;2023-07-29T20:29:06;3.63;;;2.08;;
43154;SDS011;34212;51.018;13.586;2023-07-29T20:34:07;2.78;;;1.65;;
43154;SDS011;34212;51.018;13.586;2023-07-29T20:39:09;3.88;;;1.38;;
43154;SDS011;34212;51.018;13.586;2023-07-29T20:44:10;2.28;;;1.40;;
43154;SDS011;34212;51.018;13.586;2023-07-29T20:49:13;2.30;;;1.50;;
43154;SDS011;34212;51.018;13.586;2023-07-29T20:54:14;4.30;;;1.43;;
43154;SDS011;34212;51.018;13.586;2023-07-29T20:59:16;4.18;;;1.60;;
43154;SDS011;34212;51.018;13.586;2023-07-29T21:04:17;2.90;;;1.33;;
43154;SDS011;34212;51.018;13.586;2023-07-29T21:09:19;3.05;;;1.63;;
43154;SDS011;34212;51.018;13.586;2023-07-29T21:14:23;2.33;;;1.40;;
43154;SDS011;34212;51.018;13.586;2023-07-29T21:19:25;2.25;;;1.63;;
43154;SDS011;34212;51.018;13.586;2023-07-29T21:24:27;5.90;;;1.65;;
43154;SDS011;34212;51.018;13.586;2023-07-29T21:29:28;1.70;;;1.35;;
43154;SDS011;34212;51.018;13.586;2023-07-29T21:34:29;1.80;;;1.50;;
43154;SDS011;34212;51.018;13.586;2023-07-29T21:39:31;2.38;;;1.55;;
43154;SDS011;34212;51.018;13.586;2023-07-29T21:44:32;2.35;;;1.60;;
43154;SDS011;34212;51.018;13.586;2023-07-29T21:49:34;2.78;;;1.67;;
43154;SDS011;34212;51.018;13.586;2023-07-29T21:54:35;2.03;;;1.45;;
43154;SDS011;34212;51.018;13.586;2023-07-29T21:59:37;3.50;;;1.67;;
43154;SDS011;34212;51.018;13.586;2023-07-29T22:04:39;3.70;;;1.73;;
43154;SDS011;34212;51.018;13.586;2023-07-29T22:09:40;2.85;;;1.80;;
43154;SDS011;34212;51.018;13.586;2023-07-29T22:14:44;2.93;;;1.97;;
43154;SDS011;34212;51.018;13.586;2023-07-29T22:19:46;7.13;;;1.90;;
43154;SDS011;34212;51.018;13.586;2023-07-29T22:24:47;4.23;;;2.03;;
43154;SDS011;34212;51.018;13.586;2023-07-29T22:29:53;3.28;;;1.60;;
43154;SDS011;34212;51.018;13.586;2023-07-29T22:34:54;3.60;;;1.80;;
43154;SDS011;34212;51.018;13.586;2023-07-29T22:39:56;4.03;;;1.77;;
43154;SDS011;34212;51.018;13.586;2023-07-29T22:44:57;2.40;;;1.93;;
43154;SDS011;34212;51.018;13.586;2023-07-29T22:50:00;4.57;;;1.90;;
43154;SDS011;34212;51.018;13.586;2023-07-29T22:55:02;3.42;;;1.90;;
43154;SDS011;34212;51.018;13.586;2023-07-29T23:00:03;5.63;;;2.00;;
43154;SDS011;34212;51.018;13.586;2023-07-29T23:05:06;3.13;;;2.00;;
43154;SDS011;34212;51.018;13.586;2023-07-29T23:10:07;5.03;;;2.30;;
43154;SDS011;34212;51.018;13.586;2023-07-29T23:15:10;9.13;;;2.50;;
43154;SDS011;34212;51.018;13.586;2023-07-29T23:20:12;4.53;;;2.07;;
43154;SDS011;34212;51.018;13.586;2023-07-29T23:25:13;7.00;;;3.00;;
43154;SDS011;34212;51.018;13.586;2023-07-29T23:30:15;3.50;;;2.15;;
43154;SDS011;34212;51.018;13.586;2023-07-29T23:35:17;4.75;;;2.10;;
43154;SDS011;34212;51.018;13.586;2023-07-29T23:40:18;3.53;;;2.35;;
43154;SDS011;34212;51.018;13.586;2023-07-29T23:45:20;3.90;;;2.58;;
43154;SDS011;34212;51.018;13.586;2023-07-29T23:50:21;4.03;;;2.33;;
43154;SDS011;34212;51.018;13.586;2023-07-29T23:55:23;6.57;;;2.10;;
